createdAt,value
2018-07-06T00:01:11.815Z,15.20
2018-07-06T00:03:51.316Z,16.33
2018-07-06T00:06:31.059Z,14.60
2018-07-06T00:09:10.693Z,15.00
2018-07-06T00:11:50.333Z,15.10
2018-07-06T00:14:30.032Z,15.93
2018-07-06T00:17:09.714Z,15.90
2018-07-06T00:19:49.174Z,15.37
2018-07-06T00:22:28.908Z,13.90
2018-07-06T00:25:08.556Z,15.23
2018-07-06T00:27:48.221Z,14.03
2018-07-06T00:30:27.879Z,12.93
2018-07-06T00:33:07.315Z,15.83
2018-07-06T00:35:46.903Z,14.77
2018-07-06T00:38:26.464Z,14.83
2018-07-06T00:41:06.159Z,14.30
2018-07-06T00:43:45.708Z,17.17
2018-07-06T00:46:25.391Z,16.73
2018-07-06T00:49:04.924Z,16.67
2018-07-06T00:51:44.720Z,16.90
2018-07-06T00:54:24.331Z,19.30
2018-07-06T00:57:03.989Z,17.70
2018-07-06T00:59:43.699Z,18.37
2018-07-06T01:02:23.207Z,20.30
2018-07-06T01:05:02.788Z,19.50
2018-07-06T01:07:42.547Z,20.70
2018-07-06T01:10:22.293Z,22.10
2018-07-06T01:13:01.083Z,20.47
2018-07-06T01:15:40.642Z,19.83
2018-07-06T01:18:20.268Z,18.87
2018-07-06T01:21:00.349Z,19.80
2018-07-06T01:23:39.942Z,29.27
2018-07-06T01:26:19.674Z,23.07
2018-07-06T01:28:59.682Z,20.67
2018-07-06T01:31:39.374Z,24.43
2018-07-06T01:34:19.008Z,21.20
2018-07-06T01:36:58.598Z,19.95
2018-07-06T01:39:39.110Z,21.73
2018-07-06T01:42:18.685Z,22.17
2018-07-06T01:44:58.230Z,21.33
2018-07-06T01:47:31.744Z,21.93
2018-07-06T01:50:05.418Z,21.42
2018-07-06T01:52:39.150Z,20.75
2018-07-06T01:55:18.676Z,22.10
2018-07-06T01:57:58.346Z,19.60
2018-07-06T02:00:38.197Z,20.92
2018-07-06T02:03:17.654Z,21.60
2018-07-06T02:05:57.090Z,22.20
2018-07-06T02:08:36.624Z,25.25
2018-07-06T02:11:16.483Z,21.80
2018-07-06T02:13:56.236Z,22.30
2018-07-06T02:16:35.854Z,22.53
2018-07-06T02:19:09.500Z,23.77
2018-07-06T02:21:43.115Z,27.22
2018-07-06T02:24:17.030Z,30.17
2018-07-06T02:26:50.564Z,25.60
2018-07-06T02:29:30.225Z,25.93
2018-07-06T02:32:09.967Z,25.75
2018-07-06T02:34:49.702Z,25.80
2018-07-06T02:37:29.366Z,27.98
2018-07-06T02:40:09.097Z,26.00
2018-07-06T02:42:48.771Z,26.52
2018-07-06T02:45:22.550Z,29.23
2018-07-06T02:47:56.284Z,26.33
2018-07-06T02:50:35.845Z,30.20
2018-07-06T02:53:15.500Z,28.07
2018-07-06T02:55:55.196Z,28.87
2018-07-06T02:58:34.773Z,28.30
2018-07-06T03:01:14.510Z,28.87
2018-07-06T03:03:54.031Z,27.03
2018-07-06T03:06:33.500Z,31.33
2018-07-06T03:09:14.430Z,31.23
2018-07-06T03:11:54.186Z,29.00
2018-07-06T03:14:28.049Z,29.47
2018-07-06T03:17:02.531Z,28.33
2018-07-06T03:19:42.241Z,24.57
2018-07-06T03:22:16.009Z,26.35
2018-07-06T03:24:55.711Z,26.80
2018-07-06T03:27:35.285Z,22.90
2018-07-06T03:30:08.827Z,23.47
2018-07-06T03:32:48.412Z,24.77
2018-07-06T03:35:28.082Z,21.43
2018-07-06T03:38:01.666Z,22.97
2018-07-06T03:40:35.344Z,23.37
2018-07-06T03:43:14.910Z,24.33
2018-07-06T03:45:54.495Z,21.13
2018-07-06T03:48:34.231Z,21.53
2018-07-06T03:51:14.465Z,20.82
2018-07-06T03:53:54.143Z,21.43
2018-07-06T03:56:33.723Z,20.93
2018-07-06T03:59:13.300Z,22.37
2018-07-06T04:01:52.943Z,19.03
2018-07-06T04:04:33.250Z,20.07
2018-07-06T04:07:12.743Z,21.93
2018-07-06T04:09:52.409Z,20.50
2018-07-06T04:12:31.854Z,19.47
2018-07-06T04:15:11.460Z,18.53
2018-07-06T04:17:50.904Z,19.73
2018-07-06T04:20:30.455Z,17.45
2018-07-06T04:23:09.921Z,18.80
2018-07-06T04:25:49.553Z,18.17
2018-07-06T04:28:29.129Z,18.80
2018-07-06T04:31:02.640Z,17.23
2018-07-06T04:33:36.322Z,17.70
2018-07-06T04:36:10.241Z,18.70
2018-07-06T04:38:50.154Z,17.30
2018-07-06T04:41:29.774Z,16.60
2018-07-06T04:44:09.409Z,18.90
2018-07-06T04:46:48.893Z,18.53
2018-07-06T04:49:28.485Z,18.10
2018-07-06T04:52:08.150Z,17.10
2018-07-06T04:54:47.753Z,19.70
2018-07-06T04:57:28.002Z,15.75
2018-07-06T05:00:01.753Z,19.10
2018-07-06T05:02:41.307Z,15.75
2018-07-06T05:05:20.761Z,16.67
2018-07-06T05:07:54.627Z,15.32
2018-07-06T05:10:28.183Z,15.53
2018-07-06T05:13:01.905Z,14.17
2018-07-06T05:15:35.572Z,13.58
2018-07-06T05:18:09.190Z,14.80
2018-07-06T05:20:42.796Z,15.20
2018-07-06T05:23:16.518Z,14.93
2018-07-06T05:25:56.067Z,15.10
2018-07-06T05:28:35.673Z,14.80
2018-07-06T05:31:15.332Z,13.70
2018-07-06T05:33:48.967Z,14.10
2018-07-06T05:36:28.384Z,12.37
2018-07-06T05:39:08.042Z,12.80
2018-07-06T05:41:47.601Z,12.33
2018-07-06T05:44:21.162Z,10.10
2018-07-06T05:47:00.765Z,11.20
2018-07-06T05:49:40.394Z,10.37
2018-07-06T05:52:14.062Z,9.20
2018-07-06T05:54:53.739Z,9.10
2018-07-06T05:57:33.440Z,10.27
2018-07-06T06:00:13.009Z,11.03
2018-07-06T06:02:52.949Z,9.87
2018-07-06T06:05:32.493Z,10.10
2018-07-06T06:07:59.844Z,9.30
2018-07-06T06:10:28.359Z,8.50
2018-07-06T06:12:56.843Z,9.43
2018-07-06T06:15:25.443Z,9.77
2018-07-06T06:17:53.959Z,10.28
2018-07-06T06:20:22.431Z,10.08
2018-07-06T06:22:50.931Z,9.80
2018-07-06T06:25:19.138Z,9.03
2018-07-06T06:27:47.703Z,8.43
2018-07-06T06:30:16.257Z,12.07
2018-07-06T06:32:45.332Z,10.50
2018-07-06T06:35:13.909Z,11.30
2018-07-06T06:37:42.999Z,9.03
2018-07-06T06:40:11.248Z,11.43
2018-07-06T06:42:40.345Z,10.93
2018-07-06T06:45:08.550Z,12.28
2018-07-06T06:47:37.245Z,12.43
2018-07-06T06:50:05.776Z,10.23
2018-07-06T06:52:34.340Z,9.35
2018-07-06T06:55:02.535Z,8.70
2018-07-06T06:57:31.456Z,9.10
2018-07-06T07:00:00.040Z,7.67
2018-07-06T07:02:28.693Z,8.47
2018-07-06T07:04:57.198Z,9.60
2018-07-06T07:07:25.940Z,8.70
2018-07-06T07:09:54.442Z,7.73
2018-07-06T07:12:22.929Z,8.15
2018-07-06T07:14:51.446Z,8.15
2018-07-06T07:17:19.947Z,8.03
2018-07-06T07:19:48.195Z,8.20
2018-07-06T07:22:16.759Z,9.93
2018-07-06T07:24:45.478Z,8.57
2018-07-06T07:27:14.259Z,9.08
2018-07-06T07:29:42.928Z,11.70
2018-07-06T07:32:11.350Z,8.13
2018-07-06T07:34:39.838Z,8.10
2018-07-06T07:37:08.395Z,7.33
2018-07-06T07:39:36.974Z,10.03
2018-07-06T07:42:05.525Z,8.35
2018-07-06T07:44:33.872Z,10.30
2018-07-06T07:47:02.632Z,6.70
2018-07-06T07:49:31.168Z,7.90
2018-07-06T07:52:12.135Z,6.70
2018-07-06T07:54:46.060Z,9.00
2018-07-06T07:57:14.989Z,9.15
2018-07-06T07:59:43.888Z,9.87
2018-07-06T08:02:12.731Z,9.53
2018-07-06T08:04:41.671Z,8.77
2018-07-06T08:07:10.157Z,7.57
2018-07-06T08:09:38.396Z,7.03
2018-07-06T08:12:06.570Z,6.60
2018-07-06T08:14:35.084Z,9.60
2018-07-06T08:17:03.219Z,10.10
2018-07-06T08:19:31.792Z,8.45
2018-07-06T08:22:00.364Z,7.60
2018-07-06T08:24:28.525Z,7.10
2018-07-06T08:26:57.123Z,6.25
2018-07-06T08:29:25.614Z,6.07
2018-07-06T08:31:53.813Z,5.60
2018-07-06T08:34:27.607Z,5.90
2018-07-06T08:37:31.723Z,5.27
2018-07-06T08:40:00.123Z,6.50
2018-07-06T08:42:29.643Z,6.17
2018-07-06T08:44:58.668Z,5.10
2018-07-06T08:47:26.870Z,8.53
2018-07-06T08:49:55.939Z,7.30
2018-07-06T08:52:24.442Z,7.57
2018-07-06T08:54:52.994Z,5.63
2018-07-06T08:57:22.150Z,6.93
2018-07-06T08:59:51.063Z,9.50
2018-07-06T09:02:19.543Z,6.20
2018-07-06T09:04:48.357Z,5.30
2018-07-06T09:07:16.626Z,6.67
2018-07-06T09:09:44.887Z,5.87
2018-07-06T09:12:13.584Z,6.17
2018-07-06T09:14:41.899Z,6.40
2018-07-06T09:17:12.759Z,5.80
2018-07-06T09:19:41.479Z,4.50
2018-07-06T09:22:09.685Z,4.47
2018-07-06T09:24:37.892Z,5.20
2018-07-06T09:27:06.482Z,4.83
2018-07-06T09:29:34.691Z,7.77
2018-07-06T09:32:02.891Z,4.90
2018-07-06T09:34:31.120Z,5.13
2018-07-06T09:36:59.560Z,5.23
2018-07-06T09:39:27.728Z,5.40
2018-07-06T09:41:56.500Z,4.72
2018-07-06T09:44:24.665Z,4.07
2018-07-06T09:46:52.835Z,3.55
2018-07-06T09:49:21.033Z,6.60
2018-07-06T09:51:49.983Z,3.93
2018-07-06T09:54:18.224Z,3.90
2018-07-06T09:56:46.380Z,5.42
2018-07-06T09:59:14.575Z,4.60
2018-07-06T10:01:42.746Z,3.83
2018-07-06T10:04:10.974Z,3.63
2018-07-06T10:06:39.095Z,3.70
2018-07-06T10:09:08.703Z,3.60
2018-07-06T10:11:36.921Z,4.30
2018-07-06T10:14:05.063Z,4.60
2018-07-06T10:16:33.323Z,3.57
2018-07-06T10:19:01.487Z,3.37
2018-07-06T10:21:29.666Z,5.55
2018-07-06T10:23:57.829Z,4.00
2018-07-06T10:26:26.037Z,3.60
2018-07-06T10:28:59.974Z,3.93
2018-07-06T10:32:04.614Z,4.47
2018-07-06T10:34:33.091Z,3.40
2018-07-06T10:37:01.656Z,3.33
2018-07-06T10:39:30.253Z,3.73
2018-07-06T10:41:58.738Z,3.30
2018-07-06T10:44:27.259Z,3.70
2018-07-06T10:46:55.633Z,4.13
2018-07-06T10:49:24.266Z,3.30
2018-07-06T10:51:52.898Z,2.65
2018-07-06T10:54:22.753Z,3.27
2018-07-06T10:56:51.741Z,4.10
2018-07-06T10:59:20.467Z,2.77
2018-07-06T11:01:51.419Z,3.72
2018-07-06T11:04:22.990Z,3.17
2018-07-06T11:16:23.458Z,3.70
2018-07-06T11:18:52.094Z,2.80
2018-07-06T11:21:20.588Z,2.67
2018-07-06T11:23:49.135Z,2.57
2018-07-06T11:26:17.680Z,2.70
2018-07-06T11:28:46.399Z,3.57
2018-07-06T11:31:14.955Z,3.20
2018-07-06T11:33:43.490Z,3.87
2018-07-06T11:36:12.279Z,3.20
2018-07-06T11:38:40.842Z,2.40
2018-07-06T11:41:09.396Z,3.07
2018-07-06T11:43:37.947Z,4.40
2018-07-06T11:46:06.652Z,3.03
2018-07-06T11:48:35.181Z,2.75
2018-07-06T11:51:03.825Z,2.98
2018-07-06T11:53:32.360Z,2.30
2018-07-06T11:56:00.980Z,2.60
2018-07-06T11:58:29.475Z,2.40
2018-07-06T12:06:24.314Z,2.20
2018-07-06T12:08:52.910Z,2.67
2018-07-06T12:11:21.464Z,2.20
2018-07-06T12:13:50.080Z,1.80
2018-07-06T12:16:18.653Z,2.17
2018-07-06T12:18:47.156Z,4.40
2018-07-06T12:21:15.785Z,2.10
2018-07-06T12:23:44.223Z,2.60
2018-07-06T12:26:13.763Z,2.40
2018-07-06T12:28:45.859Z,2.30
2018-07-06T12:31:14.538Z,2.47
2018-07-06T12:33:43.147Z,2.80
2018-07-06T12:36:12.444Z,2.57
2018-07-06T12:38:41.037Z,3.67
2018-07-06T12:41:09.562Z,2.80
2018-07-06T12:43:38.063Z,2.30
2018-07-06T12:46:06.651Z,4.73
2018-07-06T12:48:35.164Z,2.50
2018-07-06T12:51:04.084Z,2.87
2018-07-06T12:53:32.634Z,2.73
2018-07-06T12:56:02.069Z,2.93
2018-07-06T12:58:30.673Z,2.60
2018-07-06T13:00:59.119Z,3.03
2018-07-06T13:03:27.716Z,2.87
2018-07-06T13:05:56.340Z,4.20
2018-07-06T13:08:24.888Z,2.72
2018-07-06T13:10:53.437Z,2.87
2018-07-06T13:13:21.994Z,2.40
2018-07-06T13:15:50.568Z,2.23
2018-07-06T13:18:19.080Z,2.90
2018-07-06T13:20:47.774Z,2.53
2018-07-06T13:23:16.454Z,2.20
2018-07-06T13:25:44.958Z,2.77
2018-07-06T13:28:14.094Z,2.65
2018-07-06T13:30:42.624Z,2.03
2018-07-06T13:33:11.100Z,2.50
2018-07-06T13:35:39.693Z,2.50
2018-07-06T13:38:08.428Z,2.40
2018-07-06T13:40:38.574Z,2.40
2018-07-06T13:43:08.911Z,2.40
2018-07-06T13:45:39.335Z,2.83
2018-07-06T13:48:07.843Z,2.50
2018-07-06T13:50:36.428Z,3.23
2018-07-06T13:53:05.014Z,4.03
2018-07-06T13:55:33.451Z,2.10
2018-07-06T13:58:02.085Z,2.50
2018-07-06T14:00:30.562Z,2.87
2018-07-06T14:02:59.040Z,3.17
2018-07-06T14:05:27.580Z,3.42
2018-07-06T14:07:56.116Z,2.43
2018-07-06T14:10:24.576Z,2.57
2018-07-06T14:12:52.768Z,2.42
2018-07-06T14:16:23.711Z,3.60
2018-07-06T14:18:51.928Z,4.83
2018-07-06T14:21:20.171Z,3.45
2018-07-06T14:23:48.895Z,3.20
2018-07-06T14:26:17.436Z,7.10
2018-07-06T14:28:48.165Z,3.30
2018-07-06T14:31:16.684Z,3.67
2018-07-06T14:33:45.721Z,3.53
2018-07-06T14:36:13.990Z,3.33
2018-07-06T14:38:42.280Z,6.72
2018-07-06T14:41:10.557Z,4.20
2018-07-06T14:43:38.627Z,3.80
2018-07-06T14:46:06.754Z,3.90
2018-07-06T14:48:34.998Z,3.83
2018-07-06T14:51:03.314Z,6.80
2018-07-06T14:53:31.761Z,4.13
2018-07-06T14:56:00.088Z,3.83
2018-07-06T14:58:28.268Z,3.70
2018-07-06T15:00:56.513Z,4.30
2018-07-06T15:03:24.697Z,3.50
2018-07-06T15:05:52.874Z,3.70
2018-07-06T15:08:21.779Z,3.63
2018-07-06T15:10:50.011Z,3.50
2018-07-06T15:13:18.563Z,3.62
2018-07-06T15:15:47.200Z,3.73
2018-07-06T15:18:15.533Z,4.23
2018-07-06T15:20:44.068Z,3.93
2018-07-06T15:23:12.812Z,3.37
2018-07-06T15:25:41.330Z,3.87
2018-07-06T15:28:09.542Z,3.53
2018-07-06T15:30:38.201Z,4.10
2018-07-06T15:33:07.468Z,3.70
2018-07-06T15:35:36.202Z,4.37
2018-07-06T15:38:04.500Z,4.03
2018-07-06T15:40:32.729Z,4.10
2018-07-06T15:43:01.096Z,4.93
2018-07-06T15:45:29.498Z,3.87
2018-07-06T15:47:57.644Z,5.80
2018-07-06T15:50:26.013Z,3.50
2018-07-06T15:52:55.161Z,4.20
2018-07-06T15:55:23.366Z,4.30
2018-07-06T15:57:51.660Z,3.83
2018-07-06T16:00:19.834Z,5.17
2018-07-06T16:02:48.094Z,3.87
2018-07-06T16:05:16.378Z,4.90
2018-07-06T16:07:44.891Z,4.73
2018-07-06T16:10:13.524Z,4.20
2018-07-06T16:12:41.807Z,4.20
2018-07-06T16:15:10.046Z,5.33
2018-07-06T16:17:38.259Z,4.70
2018-07-06T16:20:08.237Z,4.13
2018-07-06T16:22:41.212Z,4.50
2018-07-06T16:25:09.586Z,4.13
2018-07-06T16:27:37.803Z,4.43
2018-07-06T16:30:06.109Z,6.27
2018-07-06T16:32:38.605Z,4.63
2018-07-06T16:35:08.743Z,3.87
2018-07-06T16:37:37.211Z,4.47
2018-07-06T16:40:05.440Z,5.70
2018-07-06T16:42:33.802Z,4.47
2018-07-06T16:45:02.210Z,4.60
2018-07-06T16:47:30.405Z,4.50
2018-07-06T16:49:58.680Z,4.47
2018-07-06T16:52:26.952Z,4.55
2018-07-06T16:54:56.474Z,4.90
2018-07-06T16:57:24.782Z,4.37
2018-07-06T16:59:53.174Z,4.57
2018-07-06T17:02:21.352Z,4.80
2018-07-06T17:04:49.885Z,8.23
2018-07-06T17:07:18.080Z,4.83
2018-07-06T17:09:46.422Z,4.80
2018-07-06T17:12:14.799Z,5.37
2018-07-06T17:14:42.996Z,5.77
2018-07-06T17:17:11.303Z,6.83
2018-07-06T17:19:39.491Z,4.70
2018-07-06T17:22:08.081Z,5.10
2018-07-06T17:24:36.266Z,4.10
2018-07-06T17:27:04.569Z,5.07
2018-07-06T17:29:32.765Z,4.73
2018-07-06T17:32:01.920Z,5.33
2018-07-06T17:34:30.120Z,5.37
2018-07-06T17:36:59.224Z,4.40
2018-07-06T17:39:27.422Z,4.20
2018-07-06T17:41:55.725Z,4.75
2018-07-06T17:44:24.098Z,9.17
2018-07-06T17:46:52.201Z,4.73
2018-07-06T17:49:20.368Z,4.33
2018-07-06T17:51:50.782Z,5.20
2018-07-06T17:54:19.029Z,4.53
2018-07-06T17:56:48.242Z,5.65
2018-07-06T17:59:16.530Z,7.33
2018-07-06T18:01:44.726Z,4.72
2018-07-06T18:04:12.887Z,4.10
2018-07-06T18:06:41.080Z,4.50
2018-07-06T18:09:09.372Z,4.17
2018-07-06T18:11:38.360Z,4.63
2018-07-06T18:14:06.840Z,5.00
2018-07-06T18:16:35.076Z,4.80
2018-07-06T18:19:03.251Z,4.97
2018-07-06T18:21:31.676Z,4.20
2018-07-06T18:23:59.839Z,3.97
2018-07-06T18:26:28.084Z,4.73
2018-07-06T18:28:57.515Z,5.00
2018-07-06T18:31:25.677Z,5.10
2018-07-06T18:33:54.003Z,4.63
2018-07-06T18:36:24.522Z,5.22
2018-07-06T18:38:54.043Z,4.37
2018-07-06T18:41:22.211Z,5.50
2018-07-06T18:43:53.324Z,4.97
2018-07-06T18:46:21.599Z,4.73
2018-07-06T18:48:49.951Z,5.57
2018-07-06T18:51:18.157Z,5.05
2018-07-06T18:53:46.436Z,5.03
2018-07-06T18:56:15.551Z,5.67
2018-07-06T18:58:50.264Z,7.73
2018-07-06T19:01:20.027Z,5.30
2018-07-06T19:03:48.222Z,8.00
2018-07-06T19:06:16.604Z,7.03
2018-07-06T19:08:45.316Z,5.90
2018-07-06T19:11:16.759Z,5.63
2018-07-06T19:13:44.895Z,5.67
2018-07-06T19:16:13.721Z,4.90
2018-07-06T19:18:42.335Z,5.40
2018-07-06T19:21:10.576Z,5.80
2018-07-06T19:23:38.797Z,5.30
2018-07-06T19:26:07.538Z,4.80
2018-07-06T19:28:35.712Z,5.47
2018-07-06T19:31:03.939Z,6.70
2018-07-06T19:36:25.215Z,5.50
2018-07-06T19:38:53.516Z,5.35
2018-07-06T19:41:21.739Z,5.60
2018-07-06T19:43:50.168Z,5.47
2018-07-06T19:46:18.343Z,5.60
2018-07-06T19:48:46.603Z,5.50
2018-07-06T19:51:14.788Z,5.10
2018-07-06T19:53:43.208Z,5.80
2018-07-06T19:56:11.634Z,5.20
2018-07-06T19:58:39.800Z,5.00
2018-07-06T20:01:07.948Z,5.93
2018-07-06T20:03:36.099Z,5.40
2018-07-06T20:06:04.553Z,5.23
2018-07-06T20:08:32.983Z,5.30
2018-07-06T20:11:01.139Z,4.95
2018-07-06T20:13:30.097Z,5.90
2018-07-06T20:15:58.444Z,5.33
2018-07-06T20:18:26.614Z,6.20
2018-07-06T20:20:54.883Z,5.73
2018-07-06T20:23:23.045Z,5.67
2018-07-06T20:25:51.337Z,5.57
2018-07-06T20:28:19.552Z,6.03
2018-07-06T20:30:47.751Z,5.83
2018-07-06T20:33:16.013Z,6.17
2018-07-06T20:35:45.224Z,5.90
2018-07-06T20:38:13.419Z,7.83
2018-07-06T20:40:41.590Z,6.80
2018-07-06T20:43:09.882Z,6.87
2018-07-06T20:45:38.151Z,6.30
2018-07-06T20:48:06.400Z,5.70
2018-07-06T20:50:34.661Z,5.50
2018-07-06T20:53:03.753Z,6.20
2018-07-06T20:55:32.076Z,5.80
2018-07-06T20:58:00.369Z,6.20
2018-07-06T21:00:28.554Z,6.63
2018-07-06T21:02:56.742Z,7.60
2018-07-06T21:05:25.759Z,7.70
2018-07-06T21:07:57.201Z,6.20
2018-07-06T21:10:27.400Z,6.58
2018-07-06T21:12:56.897Z,6.73
2018-07-06T21:16:23.834Z,11.83
2018-07-06T21:18:52.190Z,6.22
2018-07-06T21:21:21.216Z,5.80
2018-07-06T21:23:51.163Z,5.97
2018-07-06T21:26:19.421Z,6.47
2018-07-06T21:28:47.662Z,7.20
2018-07-06T21:31:15.863Z,9.10
2018-07-06T21:33:44.102Z,5.50
2018-07-06T21:36:12.458Z,7.53
2018-07-06T21:38:40.724Z,6.73
2018-07-06T21:41:08.929Z,6.20
2018-07-06T21:43:37.231Z,6.77
2018-07-06T21:46:05.442Z,6.50
2018-07-06T21:48:33.603Z,6.00
2018-07-06T21:51:01.780Z,6.50
2018-07-06T21:53:30.142Z,7.23
2018-07-06T21:56:07.664Z,9.10
2018-07-06T21:58:37.902Z,10.17
2018-07-06T22:01:08.364Z,7.17
2018-07-06T22:03:36.697Z,6.55
2018-07-06T22:06:04.909Z,7.27
2018-07-06T22:08:33.145Z,6.77
2018-07-06T22:11:01.416Z,7.90
2018-07-06T22:13:29.617Z,7.17
2018-07-06T22:15:57.818Z,7.67
2018-07-06T22:18:26.856Z,7.63
2018-07-06T22:20:55.070Z,9.90
2018-07-06T22:23:23.418Z,7.05
2018-07-06T22:29:03.821Z,7.47
2018-07-06T22:31:32.506Z,7.10
2018-07-06T22:34:01.094Z,7.20
2018-07-06T22:36:30.768Z,8.10
2018-07-06T22:38:59.718Z,7.63
2018-07-06T22:41:27.949Z,10.47
2018-07-06T22:43:56.229Z,8.70
2018-07-06T22:46:24.590Z,14.20
2018-07-06T22:48:53.716Z,6.70
2018-07-06T22:51:28.683Z,7.53
2018-07-06T22:54:00.830Z,8.13
2018-07-06T22:56:29.128Z,8.70
2018-07-06T22:58:57.636Z,7.20
2018-07-06T23:01:25.925Z,7.20
2018-07-06T23:04:05.124Z,8.13
2018-07-06T23:06:50.801Z,8.73
2018-07-06T23:09:20.613Z,7.80
2018-07-06T23:11:54.925Z,7.40
2018-07-06T23:14:23.411Z,7.37
2018-07-06T23:23:39.002Z,7.57
2018-07-06T23:26:07.925Z,7.67
2018-07-06T23:28:36.109Z,6.28
2018-07-06T23:31:04.268Z,8.07
2018-07-06T23:33:32.448Z,7.90
2018-07-06T23:36:00.650Z,6.90
2018-07-06T23:38:28.859Z,9.83
2018-07-06T23:40:57.093Z,7.40
2018-07-06T23:43:25.327Z,7.77
2018-07-06T23:45:53.493Z,7.13
2018-07-06T23:48:21.673Z,6.73
2018-07-06T23:50:50.608Z,7.93
2018-07-06T23:53:18.790Z,7.60
2018-07-06T23:55:46.930Z,7.20
2018-07-06T23:58:15.170Z,10.03
